createdAt,value
2018-08-31T00:02:05.271Z,98891.41
2018-08-31T00:04:45.727Z,98885.72
2018-08-31T00:07:31.314Z,98884.39
2018-08-31T00:12:30.115Z,98873.73
2018-08-31T00:15:00.542Z,98879.19
2018-08-31T00:17:30.048Z,98879.30
2018-08-31T00:19:59.372Z,98880.30
2018-08-31T00:22:28.852Z,98878.36
2018-08-31T00:27:11.324Z,98880.22
2018-08-31T00:29:53.331Z,98827.25
2018-08-31T00:34:04.150Z,98868.15
2018-08-31T00:36:49.832Z,98872.37
2018-08-31T00:42:41.678Z,98877.37
2018-08-31T00:45:35.663Z,98872.70
2018-08-31T00:48:05.438Z,98880.73
2018-08-31T00:50:34.974Z,98754.73
2018-08-31T00:53:04.795Z,98882.58
2018-08-31T00:55:34.597Z,98886.73
2018-08-31T00:58:03.889Z,98882.86
2018-08-31T01:00:33.195Z,98879.06
2018-08-31T01:03:02.904Z,98877.72
2018-08-31T01:05:32.409Z,98882.08
2018-08-31T01:08:01.914Z,98879.23
2018-08-31T01:10:31.197Z,98873.37
2018-08-31T01:13:00.513Z,98884.72
2018-08-31T01:15:29.937Z,98881.21
2018-08-31T01:17:59.214Z,98886.84
2018-08-31T01:20:28.718Z,98880.66
2018-08-31T01:22:58.222Z,98878.82
2018-08-31T01:25:27.729Z,98876.66
2018-08-31T01:27:57.002Z,98881.86
2018-08-31T01:30:26.528Z,98875.02
2018-08-31T01:32:56.034Z,98871.95
2018-08-31T01:35:25.540Z,98865.52
2018-08-31T01:37:54.944Z,98868.98
2018-08-31T01:40:24.550Z,98871.27
2018-08-31T01:42:54.053Z,98868.12
2018-08-31T01:45:23.453Z,98868.41
2018-08-31T01:47:52.959Z,98875.64
2018-08-31T01:50:22.361Z,98870.72
2018-08-31T01:52:51.892Z,98866.34
2018-08-31T01:55:25.550Z,98861.62
2018-08-31T01:57:55.071Z,98865.52
2018-08-31T02:00:24.781Z,98864.18
2018-08-31T02:02:54.284Z,98859.73
2018-08-31T02:05:23.756Z,98860.55
2018-08-31T02:07:53.273Z,98863.73
2018-08-31T02:10:22.901Z,98861.70
2018-08-31T02:12:52.478Z,98866.30
2018-08-31T02:15:22.113Z,98863.20
2018-08-31T02:17:51.412Z,98867.25
2018-08-31T02:20:21.021Z,98864.77
2018-08-31T02:22:50.324Z,98870.84
2018-08-31T02:25:20.952Z,98871.95
2018-08-31T02:27:50.559Z,98873.41
2018-08-31T02:30:20.165Z,98869.27
2018-08-31T02:32:49.979Z,98874.23
2018-08-31T02:35:19.282Z,98865.86
2018-08-31T02:37:48.780Z,98873.86
2018-08-31T02:40:18.090Z,98868.91
2018-08-31T02:42:47.586Z,98869.51
2018-08-31T02:45:17.194Z,98872.27
2018-08-31T02:47:47.214Z,98875.61
2018-08-31T02:50:17.017Z,98867.19
2018-08-31T02:52:46.783Z,98872.33
2018-08-31T02:55:16.442Z,98865.63
2018-08-31T02:57:45.787Z,98866.95
2018-08-31T03:00:15.431Z,98867.25
2018-08-31T03:02:44.847Z,98861.25
2018-08-31T03:05:14.454Z,98863.84
2018-08-31T03:07:43.866Z,98858.05
2018-08-31T03:10:13.620Z,98857.58
2018-08-31T03:12:42.970Z,98861.25
2018-08-31T03:15:12.672Z,98857.91
2018-08-31T03:17:42.069Z,98858.27
2018-08-31T03:20:11.548Z,98859.36
2018-08-31T03:22:41.091Z,98856.02
2018-08-31T03:25:10.805Z,98861.97
2018-08-31T03:27:40.174Z,98875.06
2018-08-31T03:30:09.641Z,98855.42
2018-08-31T03:32:39.002Z,98856.88
2018-08-31T03:35:08.547Z,98860.44
2018-08-31T03:37:38.447Z,98864.50
2018-08-31T03:40:08.127Z,98854.49
2018-08-31T03:42:37.940Z,98858.27
2018-08-31T03:45:07.852Z,98854.69
2018-08-31T03:47:37.333Z,98853.83
2018-08-31T03:50:07.150Z,98854.80
2018-08-31T03:52:36.670Z,98854.83
2018-08-31T03:55:06.812Z,98853.50
2018-08-31T03:57:36.505Z,98853.37
2018-08-31T04:00:07.047Z,98853.89
2018-08-31T04:02:36.639Z,98852.91
2018-08-31T04:05:06.345Z,98856.11
2018-08-31T04:07:35.952Z,98862.52
2018-08-31T04:10:05.559Z,98862.91
2018-08-31T04:12:35.165Z,98862.28
2018-08-31T04:15:04.599Z,98863.70
2018-08-31T04:17:33.963Z,98868.13
2018-08-31T04:20:03.264Z,98872.45
2018-08-31T04:22:32.730Z,98868.98
2018-08-31T04:25:02.123Z,98862.72
2018-08-31T04:27:31.471Z,98872.70
2018-08-31T04:30:00.978Z,98870.03
2018-08-31T04:32:30.584Z,98874.78
2018-08-31T04:35:00.090Z,98873.43
2018-08-31T04:37:29.491Z,98873.34
2018-08-31T04:39:59.391Z,98881.59
2018-08-31T04:42:28.807Z,98876.47
2018-08-31T04:44:58.208Z,98874.45
2018-08-31T04:47:28.714Z,98876.64
2018-08-31T04:49:58.139Z,98883.51
2018-08-31T04:52:27.398Z,98887.47
2018-08-31T04:54:57.863Z,98892.36
2018-08-31T04:57:27.266Z,98888.53
2018-08-31T04:59:56.563Z,98901.61
2018-08-31T05:02:25.938Z,98895.30
2018-08-31T05:04:55.324Z,98900.03
2018-08-31T05:07:24.619Z,98898.01
2018-08-31T05:09:54.070Z,98902.73
2018-08-31T05:12:23.382Z,98896.62
2018-08-31T05:14:52.874Z,98888.86
2018-08-31T05:17:22.131Z,98884.93
2018-08-31T05:19:51.430Z,98887.04
2018-08-31T05:22:20.903Z,98890.41
2018-08-31T05:24:50.280Z,98890.81
2018-08-31T05:27:19.781Z,98898.17
2018-08-31T05:29:49.185Z,98896.08
2018-08-31T05:32:18.690Z,98904.56
2018-08-31T05:34:48.086Z,98906.42
2018-08-31T05:37:17.659Z,98904.95
2018-08-31T05:39:47.210Z,98908.41
2018-08-31T05:42:16.663Z,98912.92
2018-08-31T05:44:46.413Z,98910.20
2018-08-31T05:47:15.842Z,98916.52
2018-08-31T05:49:45.422Z,98920.78
2018-08-31T05:52:14.925Z,98919.78
2018-08-31T05:54:44.533Z,98913.44
2018-08-31T05:57:13.831Z,98919.61
2018-08-31T05:59:43.135Z,98918.66
2018-08-31T06:02:12.624Z,98927.76
2018-08-31T06:04:41.936Z,98923.58
2018-08-31T06:07:11.338Z,98914.66
2018-08-31T06:09:40.957Z,98922.33
2018-08-31T06:12:10.362Z,98919.86
2018-08-31T06:14:39.853Z,98918.98
2018-08-31T06:17:09.356Z,98921.33
2018-08-31T06:19:38.963Z,98932.09
2018-08-31T06:22:08.447Z,98926.50
2018-08-31T06:24:38.072Z,98927.13
2018-08-31T06:27:07.549Z,98935.20
2018-08-31T06:29:37.185Z,98929.70
2018-08-31T06:32:06.790Z,98926.72
2018-08-31T06:34:37.451Z,98933.53
2018-08-31T06:37:07.075Z,98932.56
2018-08-31T06:39:36.530Z,98929.95
2018-08-31T06:42:05.900Z,98930.75
2018-08-31T06:44:35.540Z,98934.98
2018-08-31T06:47:05.060Z,98932.74
2018-08-31T06:49:34.549Z,98932.95
2018-08-31T06:52:04.056Z,98935.11
2018-08-31T06:54:40.289Z,98943.45
2018-08-31T06:57:09.921Z,98940.07
2018-08-31T06:59:39.395Z,98937.36
2018-08-31T07:02:08.931Z,98939.62
2018-08-31T07:04:38.331Z,98944.78
2018-08-31T07:07:07.709Z,98941.81
2018-08-31T07:09:53.831Z,98939.16
2018-08-31T07:12:23.485Z,98951.41
2018-08-31T07:14:52.938Z,98948.36
2018-08-31T07:17:22.338Z,98950.53
2018-08-31T07:19:51.755Z,98952.76
2018-08-31T07:22:21.201Z,98953.03
2018-08-31T07:24:50.648Z,98960.84
2018-08-31T07:27:19.927Z,98956.83
2018-08-31T07:29:49.451Z,98960.66
2018-08-31T07:32:18.887Z,98959.23
2018-08-31T07:34:48.358Z,98961.39
2018-08-31T07:37:17.862Z,98960.55
2018-08-31T07:39:47.243Z,98962.65
2018-08-31T07:42:16.701Z,98961.28
2018-08-31T07:44:46.273Z,98959.38
2018-08-31T07:47:15.504Z,98962.22
2018-08-31T07:49:44.806Z,98961.39
2018-08-31T07:52:14.274Z,98963.27
2018-08-31T07:54:43.882Z,98956.40
2018-08-31T07:57:13.385Z,98961.02
2018-08-31T07:59:42.991Z,98953.77
2018-08-31T08:02:12.289Z,98944.93
2018-08-31T08:04:41.750Z,98952.49
2018-08-31T08:07:11.198Z,98944.16
2018-08-31T08:09:40.658Z,98948.73
2018-08-31T08:12:10.106Z,98945.87
2018-08-31T08:14:39.727Z,98942.69
2018-08-31T08:17:09.317Z,98937.08
2018-08-31T08:19:38.650Z,98934.43
2018-08-31T08:22:08.019Z,98939.03
2018-08-31T08:24:37.292Z,98948.77
2018-08-31T08:27:06.591Z,98957.16
2018-08-31T08:29:36.021Z,98954.77
2018-08-31T08:32:05.533Z,98952.79
2018-08-31T08:34:34.926Z,98961.25
2018-08-31T08:37:04.175Z,98952.80
2018-08-31T08:39:33.733Z,98948.80
2018-08-31T08:42:03.015Z,98950.41
2018-08-31T08:44:32.535Z,98945.18
2018-08-31T08:47:02.813Z,98956.16
2018-08-31T08:49:32.341Z,98958.36
2018-08-31T08:52:01.763Z,98948.33
2018-08-31T08:54:31.166Z,98938.48
2018-08-31T08:57:00.391Z,98937.82
2018-08-31T08:59:29.961Z,98940.55
2018-08-31T09:01:59.373Z,98946.95
2018-08-31T09:04:28.772Z,98942.83
2018-08-31T09:06:58.070Z,98938.86
2018-08-31T09:09:27.473Z,98936.05
2018-08-31T09:11:56.775Z,98936.47
2018-08-31T09:14:26.046Z,98935.64
2018-08-31T09:16:55.520Z,98936.19
2018-08-31T09:19:25.082Z,98938.94
2018-08-31T09:21:54.487Z,98936.64
2018-08-31T09:24:23.790Z,98929.66
2018-08-31T09:26:53.111Z,98937.30
2018-08-31T09:29:22.483Z,98930.77
2018-08-31T09:31:51.782Z,98927.66
2018-08-31T09:34:21.536Z,98934.79
2018-08-31T09:36:51.053Z,98930.38
2018-08-31T09:39:20.706Z,98920.43
2018-08-31T09:41:51.131Z,98917.41
2018-08-31T09:44:20.640Z,98920.03
2018-08-31T09:46:50.038Z,98920.36
2018-08-31T09:49:19.336Z,98922.61
2018-08-31T09:51:48.842Z,98928.09
2018-08-31T09:54:18.656Z,98917.56
2018-08-31T09:56:48.093Z,98913.23
2018-08-31T09:59:17.455Z,98912.10
2018-08-31T10:01:46.794Z,98919.59
2018-08-31T10:04:16.261Z,98913.42
2018-08-31T10:06:45.850Z,98913.56
2018-08-31T10:09:16.498Z,98904.53
2018-08-31T10:11:45.955Z,98906.13
2018-08-31T10:14:15.406Z,98903.05
2018-08-31T10:16:44.678Z,98903.37
2018-08-31T10:19:14.927Z,98900.94
2018-08-31T10:21:44.430Z,98906.94
2018-08-31T10:24:13.931Z,98907.33
2018-08-31T10:26:43.478Z,98904.70
2018-08-31T10:29:12.838Z,98903.86
2018-08-31T10:31:42.121Z,98903.41
2018-08-31T10:34:11.848Z,98894.02
2018-08-31T10:36:41.239Z,98893.30
2018-08-31T10:39:13.936Z,98886.70
2018-08-31T10:41:43.329Z,98885.64
2018-08-31T10:44:12.939Z,98882.71
2018-08-31T10:46:42.389Z,98882.94
2018-08-31T10:49:11.742Z,98878.60
2018-08-31T10:51:41.298Z,98885.76
2018-08-31T10:54:10.649Z,98881.15
2018-08-31T10:56:40.101Z,98886.77
2018-08-31T10:59:09.560Z,98882.92
2018-08-31T11:01:39.009Z,98898.88
2018-08-31T11:04:08.887Z,98880.92
2018-08-31T11:06:38.994Z,98882.94
2018-08-31T11:09:08.698Z,98882.73
2018-08-31T11:11:38.158Z,98885.72
2018-08-31T11:14:07.809Z,98880.94
2018-08-31T11:16:37.153Z,98880.27
2018-08-31T11:19:06.673Z,98882.35
2018-08-31T11:21:36.117Z,98877.22
2018-08-31T11:24:05.582Z,98872.46
2018-08-31T11:26:35.023Z,98862.56
2018-08-31T11:29:04.430Z,98867.24
2018-08-31T11:31:33.829Z,98865.76
2018-08-31T11:34:03.232Z,98869.24
2018-08-31T11:36:32.737Z,98865.42
2018-08-31T11:39:02.240Z,98873.41
2018-08-31T11:41:31.743Z,98871.08
2018-08-31T11:44:01.142Z,98866.03
2018-08-31T11:46:30.606Z,98867.92
2018-08-31T11:49:00.153Z,98872.17
2018-08-31T11:51:29.658Z,98872.13
2018-08-31T11:53:59.264Z,98865.26
2018-08-31T11:56:29.177Z,98864.16
2018-08-31T11:58:58.682Z,98865.76
2018-08-31T12:01:28.168Z,98863.98
2018-08-31T12:03:57.794Z,98857.78
2018-08-31T12:06:27.298Z,98863.89
2018-08-31T12:08:56.700Z,98860.58
2018-08-31T12:11:25.979Z,98863.13
2018-08-31T12:13:55.505Z,98855.09
2018-08-31T12:16:24.762Z,98851.31
2018-08-31T12:18:54.101Z,98858.28
2018-08-31T12:21:23.609Z,98856.08
2018-08-31T12:23:53.177Z,98849.59
2018-08-31T12:26:22.823Z,98843.62
2018-08-31T12:28:52.534Z,98844.70
2018-08-31T12:31:22.105Z,98839.69
2018-08-31T12:33:51.657Z,98834.55
2018-08-31T12:36:21.450Z,98833.28
2018-08-31T12:38:51.162Z,98837.03
2018-08-31T12:41:20.563Z,98839.86
2018-08-31T12:43:49.835Z,98839.77
2018-08-31T12:46:19.263Z,98834.82
2018-08-31T12:48:48.559Z,98839.25
2018-08-31T12:51:18.034Z,98838.44
2018-08-31T12:53:47.330Z,98837.05
2018-08-31T12:56:16.769Z,98830.88
2018-08-31T12:58:46.060Z,98832.26
2018-08-31T13:01:15.650Z,98837.05
2018-08-31T13:03:45.079Z,98834.45
2018-08-31T13:06:14.376Z,98840.42
2018-08-31T13:08:45.009Z,98838.05
2018-08-31T13:11:14.568Z,98840.98
2018-08-31T13:13:44.081Z,98849.62
2018-08-31T13:16:13.832Z,98844.58
2018-08-31T13:18:43.337Z,98848.23
2018-08-31T13:21:12.845Z,98842.36
2018-08-31T13:23:42.242Z,98849.19
2018-08-31T13:26:11.591Z,98844.08
2018-08-31T13:28:41.149Z,98839.55
2018-08-31T13:31:10.485Z,98835.41
2018-08-31T13:33:39.691Z,98836.72
2018-08-31T13:36:09.071Z,98825.47
2018-08-31T13:38:38.652Z,98822.63
2018-08-31T13:41:08.138Z,98827.25
2018-08-31T13:43:37.604Z,98833.63
2018-08-31T13:46:07.268Z,98831.40
2018-08-31T13:48:36.866Z,98834.06
2018-08-31T13:51:06.188Z,98835.36
2018-08-31T13:53:35.575Z,98824.83
2018-08-31T13:56:05.183Z,98830.42
2018-08-31T13:58:34.752Z,98830.19
2018-08-31T14:01:04.398Z,98824.70
2018-08-31T14:03:34.005Z,98833.64
2018-08-31T14:06:03.451Z,98826.52
2018-08-31T14:08:32.993Z,98827.91
2018-08-31T14:11:02.459Z,98830.36
2018-08-31T14:13:32.000Z,98845.00
2018-08-31T14:16:01.526Z,98843.48
2018-08-31T14:18:31.030Z,98842.86
2018-08-31T14:21:00.594Z,98840.43
2018-08-31T14:23:30.091Z,98850.84
2018-08-31T14:25:59.746Z,98853.97
2018-08-31T14:28:29.128Z,98849.66
2018-08-31T14:30:58.857Z,98849.76
2018-08-31T14:33:28.464Z,98848.84
2018-08-31T14:35:57.968Z,98845.01
2018-08-31T14:38:27.575Z,98848.39
2018-08-31T14:40:56.979Z,98849.32
2018-08-31T14:43:26.294Z,98853.72
2018-08-31T14:45:56.094Z,98850.83
2018-08-31T14:48:25.388Z,98847.34
2018-08-31T14:50:55.329Z,98837.05
2018-08-31T14:53:24.698Z,98837.05
2018-08-31T14:55:54.318Z,98834.05
2018-08-31T14:58:23.772Z,98834.83
2018-08-31T15:00:54.454Z,98837.41
2018-08-31T15:03:24.056Z,98840.88
2018-08-31T15:05:53.556Z,98839.07
2018-08-31T15:08:22.959Z,98837.56
2018-08-31T15:10:52.469Z,98842.95
2018-08-31T15:13:21.967Z,98842.39
2018-08-31T15:15:51.436Z,98840.92
2018-08-31T15:18:21.079Z,98829.35
2018-08-31T15:20:50.365Z,98831.16
2018-08-31T15:23:19.885Z,98832.29
2018-08-31T15:25:49.492Z,98831.26
2018-08-31T15:28:19.097Z,98843.35
2018-08-31T15:30:48.602Z,98840.08
2018-08-31T15:33:18.310Z,98844.03
2018-08-31T15:35:47.769Z,98838.61
2018-08-31T15:38:17.219Z,98837.88
2018-08-31T15:40:46.730Z,98835.83
2018-08-31T15:43:16.414Z,98837.19
2018-08-31T15:45:45.730Z,98839.91
2018-08-31T15:48:15.241Z,98844.75
2018-08-31T15:50:44.637Z,98832.85
2018-08-31T15:53:14.009Z,98834.89
2018-08-31T15:55:43.276Z,98837.91
2018-08-31T15:58:12.739Z,98834.53
2018-08-31T16:00:42.232Z,98839.48
2018-08-31T16:03:11.748Z,98840.45
2018-08-31T16:05:41.135Z,98838.44
2018-08-31T16:08:10.655Z,98833.75
2018-08-31T16:10:40.056Z,98831.11
2018-08-31T16:13:09.839Z,98836.88
2018-08-31T16:15:39.380Z,98833.09
2018-08-31T16:18:09.184Z,98834.75
2018-08-31T16:20:38.790Z,98833.98
2018-08-31T16:23:08.397Z,98835.46
2018-08-31T16:25:37.684Z,98840.02
2018-08-31T16:28:07.082Z,98840.45
2018-08-31T16:30:36.604Z,98838.45
2018-08-31T16:33:05.984Z,98838.45
2018-08-31T16:35:35.510Z,98834.98
2018-08-31T16:38:05.016Z,98834.98
2018-08-31T16:40:34.518Z,98839.84
2018-08-31T16:43:04.023Z,98843.78
2018-08-31T16:45:33.343Z,98844.52
2018-08-31T16:48:02.929Z,98848.49
2018-08-31T16:50:32.329Z,98845.28
2018-08-31T16:53:01.710Z,98852.05
2018-08-31T16:55:31.455Z,98853.84
2018-08-31T16:58:01.048Z,98856.52
2018-08-31T17:00:30.553Z,98857.70
2018-08-31T17:03:00.071Z,98853.53
2018-08-31T17:05:29.734Z,98857.58
2018-08-31T17:07:59.143Z,98862.41
2018-08-31T17:10:28.666Z,98868.48
2018-08-31T17:13:04.833Z,98869.45
2018-08-31T17:15:34.235Z,98869.02
2018-08-31T17:18:03.739Z,98868.90
2018-08-31T17:20:33.141Z,98866.45
2018-08-31T17:23:02.648Z,98867.34
2018-08-31T17:25:32.052Z,98871.81
2018-08-31T17:28:06.806Z,98865.72
2018-08-31T17:30:36.176Z,98857.36
2018-08-31T17:33:11.339Z,98862.66
2018-08-31T17:35:45.903Z,98864.89
2018-08-31T17:38:15.442Z,98875.56
2018-08-31T17:40:44.685Z,98881.41
2018-08-31T17:43:14.359Z,98877.66
2018-08-31T17:45:43.852Z,98882.35
2018-08-31T17:48:13.309Z,98878.96
2018-08-31T17:50:42.615Z,98883.92
2018-08-31T17:53:13.182Z,98886.48
2018-08-31T17:55:42.632Z,98889.60
2018-08-31T17:58:12.398Z,98899.63
2018-08-31T18:00:42.004Z,98896.20
2018-08-31T18:03:11.458Z,98888.08
2018-08-31T18:05:40.973Z,98897.19
2018-08-31T18:08:10.620Z,98907.14
2018-08-31T18:10:43.215Z,98894.75
2018-08-31T18:13:12.507Z,98910.37
2018-08-31T18:15:42.072Z,98909.11
2018-08-31T18:18:12.119Z,98918.97
2018-08-31T18:20:41.521Z,98919.09
2018-08-31T18:23:11.028Z,98924.09
2018-08-31T18:25:40.660Z,98919.71
2018-08-31T18:28:10.047Z,98923.45
2018-08-31T18:30:39.538Z,98924.15
2018-08-31T18:33:09.002Z,98931.14
2018-08-31T18:35:38.311Z,98932.88
2018-08-31T18:38:07.688Z,98935.00
2018-08-31T18:40:37.126Z,98933.82
2018-08-31T18:43:06.649Z,98935.67
2018-08-31T18:45:36.257Z,98940.92
2018-08-31T18:48:05.865Z,98936.69
2018-08-31T18:50:35.265Z,98941.46
2018-08-31T18:53:04.770Z,98946.52
2018-08-31T18:55:34.275Z,98955.13
2018-08-31T18:58:04.906Z,98953.45
2018-08-31T19:00:34.512Z,98956.36
2018-08-31T19:03:04.118Z,98955.36
2018-08-31T19:05:34.838Z,98960.71
2018-08-31T19:08:04.668Z,98969.05
2018-08-31T19:10:34.385Z,98965.03
2018-08-31T19:13:03.979Z,98961.64
2018-08-31T19:15:34.984Z,98966.56
2018-08-31T19:18:04.627Z,98972.17
2018-08-31T19:20:34.265Z,98969.10
2018-08-31T19:23:03.885Z,98971.16
2018-08-31T19:25:34.392Z,98972.08
2018-08-31T19:28:04.076Z,98974.92
2018-08-31T19:30:33.888Z,98978.20
2018-08-31T19:33:03.394Z,98981.47
2018-08-31T19:35:33.103Z,98986.56
2018-08-31T19:38:02.609Z,98989.02
2018-08-31T19:40:32.213Z,98984.39
2018-08-31T19:43:02.051Z,98987.35
2018-08-31T19:45:31.323Z,98985.10
2018-08-31T19:48:01.033Z,98983.76
2018-08-31T19:50:30.442Z,98986.45
2018-08-31T19:52:59.836Z,98992.25
2018-08-31T19:55:29.525Z,98991.32
2018-08-31T19:57:58.949Z,98997.22
2018-08-31T20:00:30.631Z,99001.28
2018-08-31T20:03:00.010Z,99009.87
2018-08-31T20:05:29.507Z,99001.97
2018-08-31T20:07:58.781Z,99007.05
2018-08-31T20:10:28.092Z,99008.08
2018-08-31T20:12:57.350Z,99016.34
2018-08-31T20:15:27.115Z,99020.15
2018-08-31T20:17:56.546Z,99014.52
2018-08-31T20:20:26.228Z,99014.70
2018-08-31T20:22:55.692Z,99019.18
2018-08-31T20:25:25.136Z,99021.55
2018-08-31T20:27:54.535Z,99026.17
2018-08-31T20:30:23.943Z,99024.09
2018-08-31T20:32:53.339Z,99022.39
2018-08-31T20:35:22.651Z,99027.33
2018-08-31T20:37:51.999Z,99030.41
2018-08-31T20:40:21.441Z,99026.82
2018-08-31T20:42:50.845Z,99026.82
2018-08-31T20:45:20.150Z,99026.27
2018-08-31T20:47:49.547Z,99032.02
2018-08-31T20:50:18.845Z,99035.00
2018-08-31T20:52:48.245Z,99038.14
2018-08-31T20:55:17.853Z,99044.12
2018-08-31T20:57:47.186Z,99050.41
2018-08-31T21:00:16.657Z,99058.05
2018-08-31T21:02:46.061Z,99061.91
2018-08-31T21:05:15.358Z,99055.28
2018-08-31T21:07:44.965Z,99058.37
2018-08-31T21:10:14.295Z,99056.92
2018-08-31T21:12:43.769Z,99067.20
2018-08-31T21:15:13.179Z,99068.84
2018-08-31T21:17:42.573Z,99068.82
2018-08-31T21:20:12.079Z,99072.16
2018-08-31T21:22:41.582Z,99074.80
2018-08-31T21:25:11.066Z,99072.72
2018-08-31T21:27:40.499Z,99071.82
2018-08-31T21:30:09.994Z,99075.25
2018-08-31T21:32:39.397Z,99064.41
2018-08-31T21:35:09.002Z,99062.88
2018-08-31T21:37:38.278Z,99061.80
2018-08-31T21:40:08.286Z,99063.70
2018-08-31T21:42:37.911Z,99063.63
2018-08-31T21:45:08.453Z,99066.05
2018-08-31T21:47:37.852Z,99062.66
2018-08-31T21:50:07.357Z,99056.84
2018-08-31T21:52:37.065Z,99063.61
2018-08-31T21:55:06.634Z,99061.88
2018-08-31T21:57:35.942Z,99064.89
2018-08-31T22:00:08.295Z,99064.89
2018-08-31T22:02:37.515Z,99067.53
2018-08-31T22:05:07.096Z,99067.63
2018-08-31T22:07:36.555Z,99068.86
2018-08-31T22:10:05.888Z,99068.33
2018-08-31T22:12:35.147Z,99067.56
2018-08-31T22:15:04.757Z,99067.89
2018-08-31T22:17:34.156Z,99074.64
2018-08-31T22:20:03.660Z,99072.36
2018-08-31T22:22:32.938Z,99071.78
2018-08-31T22:25:02.566Z,99069.36
2018-08-31T22:27:31.844Z,99068.38
2018-08-31T22:30:01.179Z,99071.68
2018-08-31T22:32:30.721Z,99064.44
2018-08-31T22:35:00.071Z,99061.31
2018-08-31T22:37:29.576Z,99071.95
2018-08-31T22:39:59.197Z,99063.25
2018-08-31T22:42:28.889Z,99059.45
2018-08-31T22:44:58.396Z,99060.31
2018-08-31T22:47:27.960Z,99056.45
2018-08-31T22:49:57.426Z,99060.56
2018-08-31T22:52:26.798Z,99055.27
2018-08-31T22:54:56.423Z,99051.30
2018-08-31T22:57:25.813Z,99049.96
2018-08-31T22:59:55.295Z,99050.44
2018-08-31T23:02:25.131Z,99049.79
2018-08-31T23:04:54.777Z,99046.25
2018-08-31T23:07:29.226Z,99053.69
2018-08-31T23:09:58.534Z,99049.25
2018-08-31T23:12:27.952Z,99058.53
2018-08-31T23:14:57.563Z,99063.34
2018-08-31T23:17:27.996Z,99069.92
2018-08-31T23:19:58.554Z,99074.36
2018-08-31T23:22:28.930Z,99080.50
2018-08-31T23:25:00.396Z,99084.61
2018-08-31T23:27:30.821Z,99090.23
2018-08-31T23:30:00.287Z,99089.95
2018-08-31T23:32:29.827Z,99091.59
2018-08-31T23:34:59.093Z,99098.72
2018-08-31T23:37:28.363Z,99095.77
2018-08-31T23:39:57.776Z,99095.80
2018-08-31T23:42:27.289Z,99105.19
2018-08-31T23:44:56.735Z,99101.94
2018-08-31T23:47:26.138Z,99103.09
2018-08-31T23:49:55.590Z,99101.78
2018-08-31T23:52:25.003Z,99099.31
2018-08-31T23:54:54.444Z,99096.69
2018-08-31T23:57:23.846Z,99098.17
2018-08-31T23:59:53.303Z,99096.02
